Time;durP1;ratioP1;P1;durP2;ratioP2;P2;SDS_P1;SDS_P2;PMS_P1;PMS_P2;Temp;Humidity;BMP_temperature;BMP_pressure;BME280_temperature;BME280_humidity;BME280_pressure;Samples;Min_cycle;Max_cycle;Signal;HPM_P1;HPM_P2
2021/09/09 00:01:20;;;;;;;;;;;;;;;22.37;49.58;101600.63;5041790;28;1534;-52
2021/09/09 00:03:50;;;;;;;;;;;;;;;22.42;49.18;101598.34;5039423;28;1694;-51
2021/09/09 00:06:16;;;;;;;;;;;;;;;22.45;49.24;101603.47;5038261;28;1566;-51
2021/09/09 00:08:47;;;;;;;;;;;;;;;22.48;49.37;101597.78;5040210;28;1687;-51
2021/09/09 00:11:13;;;;;;;;;;;;;;;22.56;49.33;101594.41;5040314;28;1773;-51
2021/09/09 00:13:48;;;;;;;;;;;;;;;22.60;49.49;101590.44;5039942;28;1565;-51
2021/09/09 00:16:17;;;;;;;;;;;;;;;22.66;48.86;101599.81;5047549;28;1716;-51
2021/09/09 00:18:43;;;;;;;;;;;;;;;22.67;49.42;101602.38;5035823;28;1906;-52
2021/09/09 00:21:13;;;;;;;;;;;;;;;22.73;49.51;101606.38;5044727;28;1637;-51
2021/09/09 00:23:40;;;;;;;;;;;;;;;22.77;48.83;101600.56;5038108;28;1652;-51
2021/09/09 00:26:10;;;;;;;;;;;;;;;22.77;49.05;101615.88;5035843;28;1786;-52
2021/09/09 00:28:36;;;;;;;;;;;;;;;22.79;48.87;101584.25;5044432;28;1680;-51
2021/09/09 00:31:06;;;;;;;;;;;;;;;22.82;49.33;101594.75;5044530;28;1889;-51
2021/09/09 00:33:36;;;;;;;;;;;;;;;22.86;49.06;101598.88;5041262;28;1943;-51
2021/09/09 00:36:03;;;;;;;;;;;;;;;22.90;49.28;101594.91;5047294;28;1814;-52
2021/09/09 00:38:32;;;;;;;;;;;;;;;22.93;49.20;101591.06;5039489;28;1977;-51
2021/09/09 00:40:59;;;;;;;;;;;;;;;22.93;49.14;101605.41;5035733;28;1553;-53
2021/09/09 00:43:32;;;;;;;;;;;;;;;22.94;49.35;101587.34;5042864;28;1440;-51
2021/09/09 00:46:02;;;;;;;;;;;;;;;22.99;49.48;101598.59;5048571;28;1475;-51
2021/09/09 00:48:31;;;;;;;;;;;;;;;23.00;49.32;101597.59;5038401;28;1786;-51
2021/09/09 00:50:58;;;;;;;;;;;;;;;23.03;49.22;101606.28;5048921;28;1473;-51
2021/09/09 00:53:28;;;;;;;;;;;;;;;23.03;49.11;101614.38;5041727;28;1774;-50
2021/09/09 00:55:58;;;;;;;;;;;;;;;23.02;49.55;101596.50;5040765;28;1726;-51
2021/09/09 00:58:30;;;;;;;;;;;;;;;23.06;49.52;101602.47;5038615;28;1993;-51
2021/09/09 01:00:57;;;;;;;;;;;;;;;23.08;49.52;101599.59;5045426;28;1913;-51
2021/09/09 01:03:23;;;;;;;;;;;;;;;23.10;49.68;101608.41;5037710;28;1785;-51
2021/09/09 01:05:50;;;;;;;;;;;;;;;23.12;49.48;101595.63;5039909;28;1702;-51
2021/09/09 01:08:17;;;;;;;;;;;;;;;23.14;49.86;101604.44;5038993;28;1693;-51
2021/09/09 01:10:45;;;;;;;;;;;;;;;23.11;49.77;101583.16;5044703;28;1679;-51
2021/09/09 01:13:14;;;;;;;;;;;;;;;23.16;49.72;101597.91;5040672;28;1983;-51
2021/09/09 01:15:47;;;;;;;;;;;;;;;23.14;49.86;101597.22;5035061;28;2039;-51
2021/09/09 01:18:15;;;;;;;;;;;;;;;23.16;49.85;101579.03;5037143;28;1984;-51
2021/09/09 01:20:45;;;;;;;;;;;;;;;23.15;49.73;101573.75;5041698;28;1873;-51
2021/09/09 01:23:14;;;;;;;;;;;;;;;23.19;49.47;101585.97;5037232;28;1544;-51
2021/09/09 01:25:45;;;;;;;;;;;;;;;23.15;49.85;101589.97;5036158;28;1625;-51
2021/09/09 01:28:12;;;;;;;;;;;;;;;23.18;49.86;101590.53;5036689;28;1469;-52
2021/09/09 01:30:40;;;;;;;;;;;;;;;23.18;49.89;101589.69;5041075;28;2007;-51
2021/09/09 01:33:10;;;;;;;;;;;;;;;23.18;49.83;101584.28;5038050;28;1471;-51
2021/09/09 01:35:39;;;;;;;;;;;;;;;23.20;50.24;101576.91;5034251;28;1821;-51
2021/09/09 01:38:05;;;;;;;;;;;;;;;23.19;49.70;101585.97;5036690;28;1977;-51
2021/09/09 01:40:33;;;;;;;;;;;;;;;23.19;49.98;101586.81;5041670;28;1628;-51
2021/09/09 01:43:10;;;;;;;;;;;;;;;23.18;50.12;101584.28;5037370;28;2361;-51
2021/09/09 01:45:39;;;;;;;;;;;;;;;23.19;49.76;101583.28;5041158;28;1854;-51
2021/09/09 01:48:08;;;;;;;;;;;;;;;23.21;49.98;101592.06;5042425;28;1769;-51
2021/09/09 01:50:37;;;;;;;;;;;;;;;23.23;49.86;101577.44;5042832;28;1807;-51
2021/09/09 01:53:07;;;;;;;;;;;;;;;23.23;50.21;101598.19;5041533;28;1723;-51
2021/09/09 01:55:37;;;;;;;;;;;;;;;23.26;50.37;101603.31;5037986;28;1405;-51
2021/09/09 01:58:14;;;;;;;;;;;;;;;23.21;50.13;101587.53;5036564;28;1908;-51
2021/09/09 02:00:41;;;;;;;;;;;;;;;23.24;50.46;101610.69;5129995;23;3772;-52
2021/09/09 02:03:12;;;;;;;;;;;;;;;23.22;50.22;101610.00;5045015;28;1635;-51
2021/09/09 02:05:38;;;;;;;;;;;;;;;23.22;50.36;101604.59;5043660;28;1905;-51
2021/09/09 02:08:06;;;;;;;;;;;;;;;23.28;50.49;101616.63;5051261;28;1415;-52
2021/09/09 02:10:36;;;;;;;;;;;;;;;23.25;50.51;101612.38;5050805;28;1817;-52
2021/09/09 02:13:08;;;;;;;;;;;;;;;23.23;50.33;101608.97;5039250;28;2068;-51
2021/09/09 02:15:35;;;;;;;;;;;;;;;23.23;50.47;101608.97;5045714;28;1833;-52
2021/09/09 02:18:05;;;;;;;;;;;;;;;23.25;50.67;101603.44;5041683;28;1914;-52
2021/09/09 02:20:32;;;;;;;;;;;;;;;23.26;50.54;101602.44;5049118;28;1862;-52
2021/09/09 02:23:01;;;;;;;;;;;;;;;23.25;50.48;101607.00;5043575;28;1715;-52
2021/09/09 02:25:27;;;;;;;;;;;;;;;23.24;50.58;101599.91;5048471;28;1520;-52
2021/09/09 02:28:02;;;;;;;;;;;;;;;23.27;50.88;101604.16;5048847;28;1621;-52
2021/09/09 02:30:39;;;;;;;;;;;;;;;23.29;50.65;101608.41;5043445;28;1572;-52
2021/09/09 02:33:09;;;;;;;;;;;;;;;23.27;50.75;101614.94;5050359;28;1782;-51
2021/09/09 02:35:38;;;;;;;;;;;;;;;23.25;50.43;101611.53;5047075;28;1748;-51
2021/09/09 02:38:09;;;;;;;;;;;;;;;23.25;50.79;101619.63;5039289;28;1982;-51
2021/09/09 02:40:38;;;;;;;;;;;;;;;23.26;50.80;101624.91;5051845;28;1774;-51
2021/09/09 02:43:13;;;;;;;;;;;;;;;23.29;50.52;101619.19;5048538;28;1970;-50
2021/09/09 02:45:55;;;;;;;;;;;;;;;23.29;50.82;101621.91;5046103;28;1838;-51
2021/09/09 02:48:26;;;;;;;;;;;;;;;23.26;51.05;101615.94;5047530;28;1728;-52
2021/09/09 02:53:36;;;;;;;;;;;;;;;23.28;51.05;101631.00;5050374;28;2693;-51
2021/09/09 02:56:07;;;;;;;;;;;;;;;23.27;51.02;101620.34;5039475;28;1627;-49
2021/09/09 02:58:42;;;;;;;;;;;;;;;23.30;51.11;101623.63;5047388;28;1906;-49
2021/09/09 03:01:13;;;;;;;;;;;;;;;23.30;51.01;101634.41;5051095;28;1589;-49
2021/09/09 03:03:55;;;;;;;;;;;;;;;23.30;51.17;101626.31;5036771;28;1710;-49
2021/09/09 03:06:27;;;;;;;;;;;;;;;23.29;51.07;101635.38;5043583;28;1606;-51
2021/09/09 03:08:54;;;;;;;;;;;;;;;23.31;51.32;101627.16;5043434;28;1517;-51
2021/09/09 03:11:29;;;;;;;;;;;;;;;23.29;51.24;101630.00;5039310;28;1623;-52
2021/09/09 03:13:57;;;;;;;;;;;;;;;23.29;51.27;101640.78;5042810;28;1378;-51
2021/09/09 03:16:33;;;;;;;;;;;;;;;23.28;51.24;101633.69;5049658;28;2057;-52
2021/09/09 03:18:59;;;;;;;;;;;;;;;23.33;51.44;101641.34;5044814;28;1972;-51
2021/09/09 03:21:28;;;;;;;;;;;;;;;23.29;51.40;101643.47;5050143;28;1720;-51
2021/09/09 03:26:38;;;;;;;;;;;;;;;23.28;51.58;101644.50;5047417;28;2628;-51
2021/09/09 03:29:09;;;;;;;;;;;;;;;23.30;51.71;101647.91;5050914;28;1763;-49
2021/09/09 03:31:40;;;;;;;;;;;;;;;23.30;51.57;101645.19;5050774;28;1625;-49
2021/09/09 03:34:07;;;;;;;;;;;;;;;23.28;51.44;101654.41;5045281;28;1689;-49
2021/09/09 03:39:21;;;;;;;;;;;;;;;23.28;51.67;101636.41;5043352;28;1910;-48
2021/09/09 03:41:50;;;;;;;;;;;;;;;23.29;51.70;101643.47;5053511;28;1757;-49
2021/09/09 03:44:24;;;;;;;;;;;;;;;23.30;51.75;101645.19;5054502;28;1615;-49
2021/09/09 03:46:58;;;;;;;;;;;;;;;23.28;51.76;101655.28;5054514;28;1704;-50
2021/09/09 03:49:26;;;;;;;;;;;;;;;23.28;52.06;101655.28;5046727;28;1514;-49
2021/09/09 03:51:54;;;;;;;;;;;;;;;23.28;51.65;101651.72;5053743;28;1526;-48
2021/09/09 03:54:21;;;;;;;;;;;;;;;23.29;51.86;101646.19;5048108;28;1708;-49
2021/09/09 03:56:49;;;;;;;;;;;;;;;23.31;51.90;101646.03;5046659;28;1705;-49
2021/09/09 03:59:15;;;;;;;;;;;;;;;23.28;51.90;101647.19;5051726;28;1984;-49
2021/09/09 04:01:43;;;;;;;;;;;;;;;23.31;51.98;101649.59;5046405;28;1570;-49
2021/09/09 04:04:12;;;;;;;;;;;;;;;23.29;51.83;101640.78;5053770;28;1503;-49
2021/09/09 04:06:40;;;;;;;;;;;;;;;23.31;52.09;101652.28;5053386;28;1588;-49
2021/09/09 04:09:12;;;;;;;;;;;;;;;23.30;52.02;101636.22;5045935;28;1739;-49
2021/09/09 04:11:42;;;;;;;;;;;;;;;23.34;52.10;101643.06;5053523;28;1716;-49
2021/09/09 04:14:11;;;;;;;;;;;;;;;23.30;51.97;101647.91;5045614;28;1701;-49
2021/09/09 04:16:39;;;;;;;;;;;;;;;23.30;52.06;101647.91;5054836;28;1539;-49
2021/09/09 04:19:11;;;;;;;;;;;;;;;23.31;51.90;101636.09;5053493;28;1902;-49
2021/09/09 04:21:41;;;;;;;;;;;;;;;23.29;52.11;101651.59;5046104;28;1751;-49
2021/09/09 04:24:14;;;;;;;;;;;;;;;23.31;52.23;101632.56;5052846;28;1776;-49
2021/09/09 04:26:44;;;;;;;;;;;;;;;23.35;52.14;101637.50;5053194;28;1736;-49
2021/09/09 04:29:18;;;;;;;;;;;;;;;23.32;52.11;101629.72;5053731;28;1752;-49
2021/09/09 04:31:46;;;;;;;;;;;;;;;23.33;52.09;101630.56;5047629;28;1527;-49
2021/09/09 04:34:21;;;;;;;;;;;;;;;23.43;52.13;101640.34;5046050;28;1554;-51
2021/09/09 04:36:47;;;;;;;;;;;;;;;22.75;50.44;101643.00;5047826;28;1890;-49
2021/09/09 04:39:21;;;;;;;;;;;;;;;22.01;51.75;101643.28;5047059;28;1980;-48
2021/09/09 04:41:51;;;;;;;;;;;;;;;21.47;51.97;101634.44;5050840;28;1723;-49
2021/09/09 04:44:25;;;;;;;;;;;;;;;21.47;51.87;101638.97;5053221;28;1734;-49
2021/09/09 04:46:56;;;;;;;;;;;;;;;21.54;52.60;101642.84;5053223;28;2095;-49
2021/09/09 04:49:43;;;;;;;;;;;;;;;21.43;51.92;101635.69;5043038;28;1849;-49
2021/09/09 04:52:12;;;;;;;;;;;;;;;21.17;51.76;101636.03;5048524;28;1778;-51
2021/09/09 04:54:44;;;;;;;;;;;;;;;21.19;51.78;101642.13;5050439;28;1759;-51
2021/09/09 04:57:13;;;;;;;;;;;;;;;21.14;51.98;101633.59;5052749;28;1657;-50
2021/09/09 04:59:41;;;;;;;;;;;;;;;21.25;52.10;101638.06;5043429;28;1971;-51
2021/09/09 05:02:08;;;;;;;;;;;;;;;21.08;52.44;101633.25;5049405;28;1686;-51
2021/09/09 05:04:38;;;;;;;;;;;;;;;21.82;52.76;101639.47;5045665;28;1711;-51
2021/09/09 05:07:09;;;;;;;;;;;;;;;22.40;52.98;101630.84;5039897;28;1802;-51
2021/09/09 05:09:37;;;;;;;;;;;;;;;22.61;52.94;101636.16;5051154;28;1612;-51
2021/09/09 05:12:09;;;;;;;;;;;;;;;22.72;52.97;101631.63;5049254;28;1558;-51
2021/09/09 05:14:39;;;;;;;;;;;;;;;22.79;53.99;101622.00;5052093;28;1897;-50
2021/09/09 05:17:06;;;;;;;;;;;;;;;22.84;53.67;101619.75;5051536;28;1702;-51
2021/09/09 05:19:32;;;;;;;;;;;;;;;22.91;54.02;101626.25;5052148;28;1996;-51
2021/09/09 05:22:00;;;;;;;;;;;;;;;22.92;54.01;101617.19;5048902;28;1629;-50
2021/09/09 05:24:27;;;;;;;;;;;;;;;23.02;54.13;101614.53;5048043;28;1793;-51
2021/09/09 05:26:54;;;;;;;;;;;;;;;22.91;54.51;101626.25;5049079;28;1651;-51
2021/09/09 05:29:29;;;;;;;;;;;;;;;23.09;54.10;101628.31;5050978;28;1856;-51
2021/09/09 05:31:56;;;;;;;;;;;;;;;23.24;53.74;101637.69;5044045;28;1685;-50
2021/09/09 05:34:26;;;;;;;;;;;;;;;23.25;53.92;101612.38;5050326;28;1379;-51
2021/09/09 05:36:54;;;;;;;;;;;;;;;22.93;52.28;101608.09;5050908;28;1605;-52
2021/09/09 05:39:29;;;;;;;;;;;;;;;23.17;53.38;101609.56;5049776;28;2366;-51
2021/09/09 05:41:56;;;;;;;;;;;;;;;23.23;53.36;101625.16;5050744;28;1912;-52
2021/09/09 05:44:28;;;;;;;;;;;;;;;23.34;53.84;101614.22;5050336;28;1476;-51
2021/09/09 05:47:03;;;;;;;;;;;;;;;23.28;53.17;101617.50;5050926;28;1516;-52
2021/09/09 05:49:33;;;;;;;;;;;;;;;23.37;53.88;101605.00;5042906;28;2058;-51
2021/09/09 05:52:03;;;;;;;;;;;;;;;23.43;54.46;101599.84;5043952;28;1996;-52
2021/09/09 05:54:32;;;;;;;;;;;;;;;23.42;51.45;101598.16;5045923;28;1953;-51
2021/09/09 05:56:59;;;;;;;;;;;;;;;23.35;49.86;101597.03;5046684;28;1587;-52
2021/09/09 05:59:32;;;;;;;;;;;;;;;23.30;49.62;101593.94;5042948;28;1995;-52
2021/09/09 06:02:06;;;;;;;;;;;;;;;23.23;49.17;101601.72;5047760;28;1781;-52
2021/09/09 06:04:35;;;;;;;;;;;;;;;23.27;49.07;101594.19;5042992;28;1555;-52
2021/09/09 06:07:05;;;;;;;;;;;;;;;21.80;49.32;101594.81;5039504;28;1871;-50
2021/09/09 06:09:32;;;;;;;;;;;;;;;22.01;50.25;101579.47;5052522;28;1347;-52
2021/09/09 06:12:07;;;;;;;;;;;;;;;22.46;48.81;101578.22;5044448;28;1789;-52
2021/09/09 06:14:50;;;;;;;;;;;;;;;22.54;48.75;101591.88;5038193;28;1622;-52
2021/09/09 06:17:23;;;;;;;;;;;;;;;22.62;47.79;101574.97;5043576;28;1486;-51
2021/09/09 06:19:50;;;;;;;;;;;;;;;22.52;47.93;101584.91;5049888;28;1975;-52
2021/09/09 06:22:20;;;;;;;;;;;;;;;22.65;47.64;101572.03;5048987;28;1523;-51
2021/09/09 06:27:52;;;;;;;;;;;;;;;22.70;47.27;101579.69;5045654;28;1893;-52
2021/09/09 06:30:21;;;;;;;;;;;;;;;22.75;46.86;101582.81;5044480;28;1676;-51
2021/09/09 06:32:48;;;;;;;;;;;;;;;22.52;47.01;101584.91;5049168;28;1607;-52
2021/09/09 06:35:15;;;;;;;;;;;;;;;22.78;46.67;101571.75;5051010;28;1585;-51
2021/09/09 06:37:46;;;;;;;;;;;;;;;22.90;46.56;101567.06;5050691;28;1600;-52
2021/09/09 06:40:17;;;;;;;;;;;;;;;22.96;46.17;101563.78;5047114;28;1910;-52
2021/09/09 06:42:45;;;;;;;;;;;;;;;22.86;46.21;101562.94;5047562;28;1600;-52
2021/09/09 06:45:13;;;;;;;;;;;;;;;22.87;45.67;101559.28;5048657;28;1744;-51
2021/09/09 06:47:46;;;;;;;;;;;;;;;22.82;45.66;101555.16;5007803;28;2008;-52
2021/09/09 06:50:14;;;;;;;;;;;;;;;22.98;45.96;101570.78;5042619;28;1548;-52
2021/09/09 06:52:40;;;;;;;;;;;;;;;23.00;45.51;101578.72;5049466;28;1449;-52
2021/09/09 06:55:08;;;;;;;;;;;;;;;22.96;45.20;101559.28;5044485;28;1494;-52
2021/09/09 06:57:35;;;;;;;;;;;;;;;23.08;45.33;101588.81;5051129;28;1804;-52
2021/09/09 07:00:03;;;;;;;;;;;;;;;22.96;44.94;101571.88;5050513;28;1979;-51
2021/09/09 07:02:32;;;;;;;;;;;;;;;23.03;45.35;101571.22;5048808;28;1768;-51
2021/09/09 07:05:14;;;;;;;;;;;;;;;23.03;45.39;101587.41;5048013;28;1776;-51
2021/09/09 07:07:56;;;;;;;;;;;;;;;23.10;45.09;101585.00;5048950;28;1681;-51
2021/09/09 07:10:24;;;;;;;;;;;;;;;23.07;44.62;101590.66;5036022;28;1541;-51
2021/09/09 07:12:52;;;;;;;;;;;;;;;23.12;44.71;101595.63;5045358;28;1770;-52
2021/09/09 07:15:20;;;;;;;;;;;;;;;22.96;44.33;101588.94;5047787;28;1668;-51
2021/09/09 07:17:49;;;;;;;;;;;;;;;23.00;44.02;101579.56;5048278;28;1757;-52
2021/09/09 07:20:15;;;;;;;;;;;;;;;23.07;44.30;101590.66;5055227;28;1905;-52
2021/09/09 07:22:46;;;;;;;;;;;;;;;23.09;44.22;101585.13;5054770;28;1685;-52
2021/09/09 07:25:13;;;;;;;;;;;;;;;23.16;44.24;101576.34;5041620;28;1716;-52
2021/09/09 07:27:43;;;;;;;;;;;;;;;23.13;44.32;101579.28;5046920;28;1737;-52
2021/09/09 07:30:11;;;;;;;;;;;;;;;23.28;44.31;101587.81;5042816;28;1515;-52
2021/09/09 07:32:41;;;;;;;;;;;;;;;23.37;44.56;101573.44;5045051;28;1525;-52
2021/09/09 07:35:09;;;;;;;;;;;;;;;23.35;45.43;101574.59;5053081;28;1587;-52
2021/09/09 07:37:47;;;;;;;;;;;;;;;23.42;44.40;101576.56;5047482;28;1573;-50
2021/09/09 07:40:14;;;;;;;;;;;;;;;23.41;45.06;101574.84;5044877;28;1967;-51
2021/09/09 07:42:46;;;;;;;;;;;;;;;23.51;44.67;101576.69;5053574;28;1614;-52
2021/09/09 07:45:16;;;;;;;;;;;;;;;23.43;45.21;101572.84;5054386;28;1679;-51
2021/09/09 07:47:43;;;;;;;;;;;;;;;23.45;45.69;101580.81;5048487;28;1570;-52
2021/09/09 07:50:10;;;;;;;;;;;;;;;23.50;45.69;101580.41;5051676;28;1841;-52
2021/09/09 07:52:37;;;;;;;;;;;;;;;23.46;45.68;101568.16;5047190;28;1499;-52
2021/09/09 07:55:04;;;;;;;;;;;;;;;23.46;45.89;101570.88;5050966;28;1425;-52
2021/09/09 07:57:34;;;;;;;;;;;;;;;23.49;45.91;101565.19;5053156;28;1786;-52
2021/09/09 08:00:07;;;;;;;;;;;;;;;23.48;46.13;101571.59;5044633;28;1902;-52
2021/09/09 08:02:33;;;;;;;;;;;;;;;23.49;46.04;101570.59;5048298;28;1574;-52
2021/09/09 08:05:01;;;;;;;;;;;;;;;23.51;46.45;101574.00;5045434;28;1735;-52
2021/09/09 08:07:28;;;;;;;;;;;;;;;23.53;46.33;101566.59;5053201;28;1555;-51
2021/09/09 08:09:55;;;;;;;;;;;;;;;23.50;46.71;101573.16;5046819;28;1765;-52
2021/09/09 08:12:22;;;;;;;;;;;;;;;23.56;46.59;101577.97;5039912;28;1612;-52
2021/09/09 08:14:51;;;;;;;;;;;;;;;23.62;46.81;101581.94;5038965;28;1526;-51
2021/09/09 08:17:24;;;;;;;;;;;;;;;23.61;46.76;101575.66;5052390;28;1677;-52
2021/09/09 08:19:51;;;;;;;;;;;;;;;23.61;46.60;101574.81;5043971;28;1913;-52
2021/09/09 08:22:20;;;;;;;;;;;;;;;23.62;46.68;101580.06;5046582;28;1559;-52
2021/09/09 08:24:49;;;;;;;;;;;;;;;23.63;47.06;101562.00;5041893;28;1950;-52
2021/09/09 08:27:16;;;;;;;;;;;;;;;23.68;46.64;101569.69;5043260;28;1651;-51
2021/09/09 08:29:44;;;;;;;;;;;;;;;23.72;47.54;101566.53;5052983;28;1828;-51
2021/09/09 08:32:10;;;;;;;;;;;;;;;23.71;47.13;101547.78;5040759;28;1788;-50
2021/09/09 08:34:41;;;;;;;;;;;;;;;23.76;46.82;101549.03;5048427;28;1712;-51
2021/09/09 08:37:09;;;;;;;;;;;;;;;23.75;47.03;101538.38;5046041;28;1513;-52
2021/09/09 08:39:37;;;;;;;;;;;;;;;23.74;47.08;101542.94;5039167;28;1926;-52
2021/09/09 08:42:07;;;;;;;;;;;;;;;23.76;47.08;101535.53;5044949;28;1610;-52
2021/09/09 08:44:34;;;;;;;;;;;;;;;23.82;47.20;101547.63;5053442;28;1875;-51
2021/09/09 08:47:09;;;;;;;;;;;;;;;23.87;46.70;101541.78;5047514;28;1795;-52
2021/09/09 08:49:41;;;;;;;;;;;;;;;23.91;48.14;101543.19;5043065;28;1732;-51
2021/09/09 08:52:12;;;;;;;;;;;;;;;23.95;47.80;101549.97;5050591;28;1764;-52
2021/09/09 08:54:42;;;;;;;;;;;;;;;23.89;47.49;101553.28;5037153;28;1666;-52
2021/09/09 08:57:09;;;;;;;;;;;;;;;23.88;46.90;101554.31;5049126;28;1758;-51
2021/09/09 08:59:38;;;;;;;;;;;;;;;23.84;47.18;101525.88;5048767;28;1445;-51
2021/09/09 09:02:07;;;;;;;;;;;;;;;23.89;46.86;101551.44;5050237;28;1746;-51
2021/09/09 09:04:35;;;;;;;;;;;;;;;23.87;48.08;101536.38;5051424;28;1761;-51
2021/09/09 09:07:08;;;;;;;;;;;;;;;23.79;48.88;101529.84;5052805;28;1748;-52
2021/09/09 09:09:37;;;;;;;;;;;;;;;23.79;48.94;101523.63;5050446;28;1653;-52
2021/09/09 09:12:06;;;;;;;;;;;;;;;23.76;49.10;101521.19;5042076;28;1560;-52
2021/09/09 09:14:35;;;;;;;;;;;;;;;23.76;49.20;101526.59;5036737;28;1929;-51
2021/09/09 09:17:04;;;;;;;;;;;;;;;23.77;49.72;101525.59;5050509;28;1667;-52
2021/09/09 09:19:51;;;;;;;;;;;;;;;23.78;49.38;101525.47;5049675;28;1574;-52
2021/09/09 09:22:31;;;;;;;;;;;;;;;23.81;49.40;101521.63;5047596;28;1326;-52
2021/09/09 09:25:01;;;;;;;;;;;;;;;23.79;49.01;101510.94;5053705;28;1183;-51
2021/09/09 09:27:29;;;;;;;;;;;;;;;23.80;49.90;101503.72;5050994;28;1438;-51
2021/09/09 09:30:00;;;;;;;;;;;;;;;23.80;50.64;101504.56;5052808;28;1921;-52
2021/09/09 09:32:31;;;;;;;;;;;;;;;23.83;50.65;101508.81;5053023;28;1699;-51
2021/09/09 09:35:08;;;;;;;;;;;;;;;23.82;50.84;101497.16;5052766;28;1476;-51
2021/09/09 09:37:49;;;;;;;;;;;;;;;23.82;51.08;101483.66;5050019;28;1442;-51
2021/09/09 09:40:36;;;;;;;;;;;;;;;23.81;51.88;101479.28;5039836;28;1912;-51
2021/09/09 09:43:12;;;;;;;;;;;;;;;23.82;52.04;101472.00;5041368;28;1441;-52
2021/09/09 09:45:52;;;;;;;;;;;;;;;23.86;51.25;101469.88;5048488;28;1679;-51
2021/09/09 09:48:25;;;;;;;;;;;;;;;23.82;52.07;101470.16;5044600;28;1792;-51
2021/09/09 09:51:02;;;;;;;;;;;;;;;23.82;52.11;101469.31;5051536;28;1604;-51
2021/09/09 09:53:43;;;;;;;;;;;;;;;23.85;51.54;101462.75;5050255;28;1724;-51
2021/09/09 09:56:12;;;;;;;;;;;;;;;23.88;52.70;101459.75;5043130;28;1497;-52
2021/09/09 09:58:51;;;;;;;;;;;;;;;23.89;52.32;101464.16;5045264;28;1511;-51
2021/09/09 10:01:18;;;;;;;;;;;;;;;23.90;52.06;101466.72;5043786;28;1910;-52
2021/09/09 10:03:45;;;;;;;;;;;;;;;23.92;50.97;101444.94;5042267;28;1840;-51
2021/09/09 10:06:12;;;;;;;;;;;;;;;23.86;53.19;101450.97;5047562;28;1818;-51
2021/09/09 10:08:40;;;;;;;;;;;;;;;23.87;53.46;101449.94;5045147;28;2092;-52
2021/09/09 10:11:06;;;;;;;;;;;;;;;23.81;52.97;101436.06;5042541;28;1436;-51
2021/09/09 10:13:34;;;;;;;;;;;;;;;23.84;52.92;101425.97;5016634;28;1728;-51
2021/09/09 10:16:06;;;;;;;;;;;;;;;23.93;52.03;101444.78;5043518;28;1793;-51
2021/09/09 10:18:35;;;;;;;;;;;;;;;23.86;53.06;101454.50;5045305;28;1500;-52
2021/09/09 10:21:03;;;;;;;;;;;;;;;23.79;53.24;101427.22;5041458;28;1906;-51
2021/09/09 10:23:32;;;;;;;;;;;;;;;23.80;52.90;101431.66;5049759;28;1777;-51
2021/09/09 10:26:08;;;;;;;;;;;;;;;23.80;53.12;101431.66;5051914;28;1586;-52
2021/09/09 10:28:45;;;;;;;;;;;;;;;23.79;52.98;101416.44;5045173;28;1679;-52
2021/09/09 10:31:24;;;;;;;;;;;;;;;23.85;52.46;101411.44;5049801;28;1592;-52
2021/09/09 10:33:55;;;;;;;;;;;;;;;23.81;52.58;101402.78;5049951;28;1756;-51
2021/09/09 10:36:43;;;;;;;;;;;;;;;23.87;52.08;101417.53;5045833;28;1794;-51
2021/09/09 10:39:11;;;;;;;;;;;;;;;23.86;53.00;101408.59;5032857;28;1681;-51
2021/09/09 10:41:45;;;;;;;;;;;;;;;23.89;52.57;101408.25;5036364;28;1985;-51
2021/09/09 10:44:22;;;;;;;;;;;;;;;23.92;51.17;101389.06;5048875;28;1677;-51
2021/09/09 10:47:04;;;;;;;;;;;;;;;23.90;51.93;101403.72;5039873;28;1294;-51
2021/09/09 10:49:46;;;;;;;;;;;;;;;23.89;52.32;101393.91;5044436;28;1473;-49
2021/09/09 10:52:20;;;;;;;;;;;;;;;23.90;50.72;101379.44;5049490;28;1494;-49
2021/09/09 10:55:11;;;;;;;;;;;;;;;23.87;51.93;101395.91;5042887;28;1751;-52
2021/09/09 10:57:39;;;;;;;;;;;;;;;23.88;51.88;101384.13;5048461;28;1812;-48
2021/09/09 11:00:08;;;;;;;;;;;;;;;23.90;51.21;101376.72;5048604;28;2112;-48
2021/09/09 11:02:47;;;;;;;;;;;;;;;23.88;51.47;101371.47;5048649;28;1902;-49
2021/09/09 11:05:22;;;;;;;;;;;;;;;23.90;51.78;101366.75;5051197;28;1691;-49
2021/09/09 11:07:51;;;;;;;;;;;;;;;23.75;49.94;101366.38;5051522;28;1715;-49
2021/09/09 11:10:18;;;;;;;;;;;;;;;23.59;50.49;101383.25;5052197;28;1630;-49
2021/09/09 11:12:50;;;;;;;;;;;;;;;23.62;50.71;101382.97;5043870;28;1556;-49
2021/09/09 11:15:20;;;;;;;;;;;;;;;23.58;50.28;101378.88;5045264;28;1679;-49
2021/09/09 11:17:59;;;;;;;;;;;;;;;23.61;50.23;101378.56;5050417;28;1478;-49
2021/09/09 11:20:30;;;;;;;;;;;;;;;23.61;49.73;101381.25;5044789;28;1902;-48
2021/09/09 11:23:12;;;;;;;;;;;;;;;23.62;50.33;101365.94;5041386;28;1684;-49
2021/09/09 11:25:39;;;;;;;;;;;;;;;23.61;50.16;101369.63;5036585;28;1353;-48
2021/09/09 11:28:19;;;;;;;;;;;;;;;23.59;49.98;101355.41;5048755;28;1651;-50
2021/09/09 11:31:03;;;;;;;;;;;;;;;23.63;49.46;101357.69;5046960;28;1804;-49
2021/09/09 11:33:30;;;;;;;;;;;;;;;23.66;49.46;101356.53;5046308;28;1841;-49
2021/09/09 11:36:01;;;;;;;;;;;;;;;23.64;48.65;101339.63;5039138;28;1544;-49
2021/09/09 11:38:34;;;;;;;;;;;;;;;23.62;48.80;101334.38;5050457;28;1271;-48
2021/09/09 11:41:15;;;;;;;;;;;;;;;23.66;48.24;101343.03;5041173;28;1981;-49
2021/09/09 11:43:47;;;;;;;;;;;;;;;23.59;48.01;101333.81;5051673;28;1793;-49
2021/09/09 11:46:31;;;;;;;;;;;;;;;23.64;47.92;101320.72;5050241;28;1521;-49
2021/09/09 11:49:01;;;;;;;;;;;;;;;23.62;47.39;101325.44;5040365;28;1483;-49
2021/09/09 11:51:36;;;;;;;;;;;;;;;23.66;47.35;101320.59;5050476;28;1084;-49
2021/09/09 11:54:17;;;;;;;;;;;;;;;23.74;47.43;101316.09;5051175;28;1754;-47
2021/09/09 11:56:52;;;;;;;;;;;;;;;23.70;45.84;101328.22;5047543;28;1920;-47
2021/09/09 11:59:23;;;;;;;;;;;;;;;23.73;46.91;101317.09;5050913;28;1441;-48
2021/09/09 12:01:52;;;;;;;;;;;;;;;23.75;45.67;101309.69;5052888;28;1979;-47
2021/09/09 12:04:19;;;;;;;;;;;;;;;23.85;45.43;101306.09;5037354;28;1677;-47
2021/09/09 12:06:47;;;;;;;;;;;;;;;23.86;44.61;101286.19;5052726;28;1661;-47
2021/09/09 12:09:23;;;;;;;;;;;;;;;23.86;44.63;101307.81;5049544;28;1662;-48
2021/09/09 12:12:05;;;;;;;;;;;;;;;23.88;43.72;101311.19;5041672;28;1543;-47
2021/09/09 12:14:33;;;;;;;;;;;;;;;23.85;44.50;101295.28;5040546;28;1915;-47
2021/09/09 12:17:15;;;;;;;;;;;;;;;23.90;44.60;101293.00;5052945;28;1701;-48
2021/09/09 12:19:52;;;;;;;;;;;;;;;23.89;44.62;101283.16;5047910;28;1357;-49
2021/09/09 12:22:26;;;;;;;;;;;;;;;23.91;45.27;101289.25;5049320;28;1995;-48
2021/09/09 12:24:56;;;;;;;;;;;;;;;23.86;45.30;101272.69;5052578;28;1162;-48
2021/09/09 12:27:25;;;;;;;;;;;;;;;23.88;45.73;101276.09;5054073;28;1673;-47
2021/09/09 12:30:04;;;;;;;;;;;;;;;23.90;46.23;101282.19;5045665;28;1646;-49
2021/09/09 12:32:31;;;;;;;;;;;;;;;23.87;47.00;101274.38;5051227;28;1625;-47
2021/09/09 12:35:22;;;;;;;;;;;;;;;23.84;47.19;101283.66;5053594;28;1827;-48
2021/09/09 12:38:01;;;;;;;;;;;;;;;23.83;47.26;101271.13;5044267;28;1975;-47
2021/09/09 12:40:49;;;;;;;;;;;;;;;23.84;47.59;101267.44;5054024;28;1501;-47
2021/09/09 12:43:22;;;;;;;;;;;;;;;23.85;47.44;101284.50;5053105;28;1704;-48
2021/09/09 12:45:50;;;;;;;;;;;;;;;23.84;47.38;101256.63;5053489;28;1580;-47
2021/09/09 12:48:27;;;;;;;;;;;;;;;23.86;47.34;101253.78;5052271;28;2024;-47
2021/09/09 12:50:55;;;;;;;;;;;;;;;23.85;47.53;101252.06;5052515;28;1668;-47
2021/09/09 12:53:35;;;;;;;;;;;;;;;23.85;47.59;101257.47;5048298;28;1631;-47
2021/09/09 12:56:02;;;;;;;;;;;;;;;23.88;47.20;101235.56;5034857;28;1780;-48
2021/09/09 12:58:32;;;;;;;;;;;;;;;23.87;47.02;101234.69;5052820;28;1374;-47
2021/09/09 13:01:00;;;;;;;;;;;;;;;23.90;47.36;101238.97;5052082;28;1910;-48
2021/09/09 13:03:38;;;;;;;;;;;;;;;23.90;46.88;101244.38;5053087;28;1866;-48
2021/09/09 13:06:07;;;;;;;;;;;;;;;23.90;47.74;101238.97;5044312;28;1471;-48
2021/09/09 13:08:37;;;;;;;;;;;;;;;23.87;48.29;101250.91;5053380;28;2195;-47
2021/09/09 13:11:06;;;;;;;;;;;;;;;23.91;46.46;101233.38;5054722;28;1779;-48
2021/09/09 13:13:43;;;;;;;;;;;;;;;23.93;46.54;101238.63;5042927;28;2074;-48
2021/09/09 13:16:15;;;;;;;;;;;;;;;23.92;48.54;101231.56;5052128;28;1764;-47
2021/09/09 13:18:47;;;;;;;;;;;;;;;23.89;48.62;101221.06;5051468;28;2003;-48